Bucyrus, Kansas
Current Conditions -  °F | °C
As of 5:53 PM on Tuesday 25 Nov 2014 (Local Time) from KOJC Reporting Station
Clear Clear  
Wind Chill: 28°   Ceiling: Unl
Heat Index: 34°   Visibility: 10mi
Dew Point: 19°   Wind: 7mph
Humidity: 54%   Direction: 170°S
Pressure: 30.07"   Gusts: NA
Location:  38.73°N, 94.72°W
Report Text: KOJC 252353Z 17006KT 10SM CLR 01/M07 A3007 RMK AO2 SLP193 T00111072 10056 20011 57012
Loading
Personal Weather Stations






























Interactive Weather Map New forecast layout! Learn more

10-Day Weather Forecast

Advertisements
Track Severe Weather on mobile